sensor_id;sensor_type;location;lat;lon;timestamp;pressure;altitude;pressure_sealevel;temperature;humidity
76592;BME280;65481;47.600;19.682;2023-04-03T00:02:16;100097.28;;;8.46;100.00
76592;BME280;65481;47.600;19.682;2023-04-03T00:07:16;100090.47;;;8.39;100.00
76592;BME280;65481;47.600;19.682;2023-04-03T00:12:17;100086.78;;;8.21;100.00
76592;BME280;65481;47.600;19.682;2023-04-03T00:17:17;100098.31;;;8.20;100.00
76592;BME280;65481;47.600;19.682;2023-04-03T00:22:18;100089.91;;;8.11;100.00
76592;BME280;65481;47.600;19.682;2023-04-03T00:27:19;100094.56;;;8.09;100.00
76592;BME280;65481;47.600;19.682;2023-04-03T00:32:19;100099.06;;;8.02;100.00
76592;BME280;65481;47.600;19.682;2023-04-03T00:37:20;100108.31;;;8.04;100.00
76592;BME280;65481;47.600;19.682;2023-04-03T00:42:20;100099.91;;;7.96;100.00
76592;BME280;65481;47.600;19.682;2023-04-03T00:47:21;100099.75;;;7.91;100.00
76592;BME280;65481;47.600;19.682;2023-04-03T00:52:25;100102.66;;;7.76;100.00
76592;BME280;65481;47.600;19.682;2023-04-03T00:57:30;100107.78;;;7.64;100.00
76592;BME280;65481;47.600;19.682;2023-04-03T01:02:31;100099.81;;;7.45;100.00
76592;BME280;65481;47.600;19.682;2023-04-03T01:07:31;100110.34;;;7.38;100.00
76592;BME280;65481;47.600;19.682;2023-04-03T01:12:38;100113.78;;;7.39;100.00
76592;BME280;65481;47.600;19.682;2023-04-03T01:27:47;100123.56;;;7.18;100.00
76592;BME280;65481;47.600;19.682;2023-04-03T01:32:48;100124.78;;;7.09;100.00
76592;BME280;65481;47.600;19.682;2023-04-03T01:37:48;100121.81;;;6.99;100.00
76592;BME280;65481;47.600;19.682;2023-04-03T01:42:49;100117.38;;;6.92;100.00
76592;BME280;65481;47.600;19.682;2023-04-03T01:47:49;100114.97;;;6.91;100.00
76592;BME280;65481;47.600;19.682;2023-04-03T01:52:50;100118.97;;;6.93;100.00
76592;BME280;65481;47.600;19.682;2023-04-03T01:57:51;100118.19;;;6.93;100.00
76592;BME280;65481;47.600;19.682;2023-04-03T02:02:51;100121.44;;;6.81;100.00
76592;BME280;65481;47.600;19.682;2023-04-03T02:07:52;100120.06;;;6.72;100.00
76592;BME280;65481;47.600;19.682;2023-04-03T02:12:53;100120.63;;;6.67;100.00
76592;BME280;65481;47.600;19.682;2023-04-03T02:17:53;100134.19;;;6.64;100.00
76592;BME280;65481;47.600;19.682;2023-04-03T02:22:54;100131.56;;;6.64;100.00
76592;BME280;65481;47.600;19.682;2023-04-03T02:27:54;100142.44;;;6.68;100.00
76592;BME280;65481;47.600;19.682;2023-04-03T02:32:55;100141.81;;;6.73;100.00
76592;BME280;65481;47.600;19.682;2023-04-03T02:37:56;100144.03;;;6.76;100.00
76592;BME280;65481;47.600;19.682;2023-04-03T02:42:56;100143.66;;;6.59;100.00
76592;BME280;65481;47.600;19.682;2023-04-03T02:47:57;100148.47;;;6.62;100.00
76592;BME280;65481;47.600;19.682;2023-04-03T02:52:57;100148.09;;;6.58;100.00
76592;BME280;65481;47.600;19.682;2023-04-03T02:57:58;100146.50;;;6.50;100.00
76592;BME280;65481;47.600;19.682;2023-04-03T03:02:58;100154.53;;;6.49;100.00
76592;BME280;65481;47.600;19.682;2023-04-03T03:07:59;100149.09;;;6.57;100.00
76592;BME280;65481;47.600;19.682;2023-04-03T03:12:59;100142.84;;;6.58;100.00
76592;BME280;65481;47.600;19.682;2023-04-03T03:18:01;100145.25;;;6.53;100.00
76592;BME280;65481;47.600;19.682;2023-04-03T03:23:01;100149.91;;;6.64;100.00
76592;BME280;65481;47.600;19.682;2023-04-03T03:28:02;100148.91;;;6.65;100.00
76592;BME280;65481;47.600;19.682;2023-04-03T03:33:03;100156.16;;;6.63;100.00
76592;BME280;65481;47.600;19.682;2023-04-03T03:38:04;100149.31;;;6.62;100.00
76592;BME280;65481;47.600;19.682;2023-04-03T03:43:04;100147.28;;;6.58;100.00
76592;BME280;65481;47.600;19.682;2023-04-03T03:48:05;100150.91;;;6.50;100.00
76592;BME280;65481;47.600;19.682;2023-04-03T03:53:05;100154.75;;;6.54;100.00
76592;BME280;65481;47.600;19.682;2023-04-03T03:58:06;100157.56;;;6.59;100.00
76592;BME280;65481;47.600;19.682;2023-04-03T04:03:06;100152.94;;;6.55;100.00
76592;BME280;65481;47.600;19.682;2023-04-03T04:08:07;100153.53;;;6.43;100.00
76592;BME280;65481;47.600;19.682;2023-04-03T04:13:07;100158.56;;;6.31;100.00
76592;BME280;65481;47.600;19.682;2023-04-03T04:18:08;100166.84;;;6.28;100.00
76592;BME280;65481;47.600;19.682;2023-04-03T04:23:09;100159.78;;;6.22;100.00
76592;BME280;65481;47.600;19.682;2023-04-03T04:28:09;100162.41;;;6.09;100.00
76592;BME280;65481;47.600;19.682;2023-04-03T04:33:10;100169.19;;;5.96;100.00
76592;BME280;65481;47.600;19.682;2023-04-03T04:38:10;100164.13;;;5.74;100.00
76592;BME280;65481;47.600;19.682;2023-04-03T04:43:11;100174.13;;;5.57;100.00
76592;BME280;65481;47.600;19.682;2023-04-03T04:48:14;100178.72;;;5.49;100.00
76592;BME280;65481;47.600;19.682;2023-04-03T04:53:15;100185.91;;;5.40;100.00
76592;BME280;65481;47.600;19.682;2023-04-03T04:58:15;100186.06;;;5.31;100.00
76592;BME280;65481;47.600;19.682;2023-04-03T05:03:16;100188.84;;;5.23;100.00
76592;BME280;65481;47.600;19.682;2023-04-03T05:08:16;100203.13;;;5.21;100.00
76592;BME280;65481;47.600;19.682;2023-04-03T05:13:17;100204.03;;;5.06;100.00
76592;BME280;65481;47.600;19.682;2023-04-03T05:18:17;100205.69;;;5.14;100.00
76592;BME280;65481;47.600;19.682;2023-04-03T05:23:18;100209.06;;;5.36;100.00
76592;BME280;65481;47.600;19.682;2023-04-03T05:28:18;100221.16;;;5.44;100.00
76592;BME280;65481;47.600;19.682;2023-04-03T05:33:19;100218.81;;;5.56;100.00
76592;BME280;65481;47.600;19.682;2023-04-03T05:38:20;100224.25;;;5.61;100.00
76592;BME280;65481;47.600;19.682;2023-04-03T05:43:20;100230.97;;;5.77;100.00
76592;BME280;65481;47.600;19.682;2023-04-03T05:48:21;100231.22;;;5.89;100.00
76592;BME280;65481;47.600;19.682;2023-04-03T05:53:26;100230.06;;;6.05;100.00
76592;BME280;65481;47.600;19.682;2023-04-03T05:58:27;100230.75;;;6.34;100.00
76592;BME280;65481;47.600;19.682;2023-04-03T06:03:27;100223.13;;;6.59;100.00
76592;BME280;65481;47.600;19.682;2023-04-03T06:08:28;100232.41;;;6.82;100.00
76592;BME280;65481;47.600;19.682;2023-04-03T06:13:29;100230.53;;;7.16;100.00
76592;BME280;65481;47.600;19.682;2023-04-03T06:18:29;100231.44;;;7.55;100.00
76592;BME280;65481;47.600;19.682;2023-04-03T06:23:30;100229.31;;;7.84;100.00
76592;BME280;65481;47.600;19.682;2023-04-03T06:28:31;100227.06;;;8.84;100.00
76592;BME280;65481;47.600;19.682;2023-04-03T06:33:32;100224.44;;;9.77;95.29
76592;BME280;65481;47.600;19.682;2023-04-03T06:38:33;100229.88;;;10.55;87.08
76592;BME280;65481;47.600;19.682;2023-04-03T06:43:34;100227.31;;;11.56;76.88
76592;BME280;65481;47.600;19.682;2023-04-03T06:48:35;100243.53;;;12.17;69.18
76592;BME280;65481;47.600;19.682;2023-04-03T06:53:36;100252.53;;;13.01;59.61
76592;BME280;65481;47.600;19.682;2023-04-03T06:58:37;100258.00;;;12.95;56.99
76592;BME280;65481;47.600;19.682;2023-04-03T07:03:37;100260.81;;;13.27;53.20
76592;BME280;65481;47.600;19.682;2023-04-03T07:08:38;100276.41;;;13.24;54.81
76592;BME280;65481;47.600;19.682;2023-04-03T07:13:40;100273.81;;;13.46;52.68
76592;BME280;65481;47.600;19.682;2023-04-03T07:18:40;100287.19;;;13.17;54.11
76592;BME280;65481;47.600;19.682;2023-04-03T07:23:41;100291.09;;;12.46;49.70
76592;BME280;65481;47.600;19.682;2023-04-03T07:28:42;100286.31;;;11.73;48.98
76592;BME280;65481;47.600;19.682;2023-04-03T07:33:44;100292.41;;;11.62;48.97
76592;BME280;65481;47.600;19.682;2023-04-03T07:38:46;100302.41;;;11.60;48.63
76592;BME280;65481;47.600;19.682;2023-04-03T07:43:46;100303.69;;;11.45;47.66
76592;BME280;65481;47.600;19.682;2023-04-03T07:48:47;100301.41;;;11.49;47.28
76592;BME280;65481;47.600;19.682;2023-04-03T07:53:48;100291.34;;;11.87;46.15
76592;BME280;65481;47.600;19.682;2023-04-03T07:58:49;100289.44;;;12.57;45.76
76592;BME280;65481;47.600;19.682;2023-04-03T08:03:49;100292.09;;;12.91;44.38
76592;BME280;65481;47.600;19.682;2023-04-03T08:08:51;100293.22;;;12.95;43.83
76592;BME280;65481;47.600;19.682;2023-04-03T08:13:52;100304.84;;;12.60;43.18
76592;BME280;65481;47.600;19.682;2023-04-03T08:18:54;100304.16;;;12.82;44.54
76592;BME280;65481;47.600;19.682;2023-04-03T08:23:55;100291.66;;;13.51;45.15
76592;BME280;65481;47.600;19.682;2023-04-03T08:28:56;100300.47;;;13.78;44.56
76592;BME280;65481;47.600;19.682;2023-04-03T08:33:57;100304.59;;;13.30;44.19
76592;BME280;65481;47.600;19.682;2023-04-03T08:38:58;100304.75;;;13.62;44.75
76592;BME280;65481;47.600;19.682;2023-04-03T08:49:32;100300.19;;;13.58;45.67
76592;BME280;65481;47.600;19.682;2023-04-03T08:54:39;100297.81;;;13.39;46.63
76592;BME280;65481;47.600;19.682;2023-04-03T08:59:43;100303.50;;;13.65;45.84
76592;BME280;65481;47.600;19.682;2023-04-03T09:04:44;100295.00;;;13.46;44.93
76592;BME280;65481;47.600;19.682;2023-04-03T09:09:45;100308.38;;;13.00;44.18
76592;BME280;65481;47.600;19.682;2023-04-03T09:20:11;100298.84;;;13.55;42.31
76592;BME280;65481;47.600;19.682;2023-04-03T09:25:15;100305.88;;;13.67;40.73
76592;BME280;65481;47.600;19.682;2023-04-03T09:30:23;100305.75;;;13.56;41.46
76592;BME280;65481;47.600;19.682;2023-04-03T09:35:28;100310.22;;;13.73;41.19
76592;BME280;65481;47.600;19.682;2023-04-03T09:40:34;100311.13;;;13.84;40.41
76592;BME280;65481;47.600;19.682;2023-04-03T09:45:35;100318.66;;;14.14;40.49
76592;BME280;65481;47.600;19.682;2023-04-03T09:50:36;100320.72;;;14.67;40.81
76592;BME280;65481;47.600;19.682;2023-04-03T09:55:43;100327.81;;;14.61;40.43
76592;BME280;65481;47.600;19.682;2023-04-03T10:00:54;100326.97;;;14.83;39.36
76592;BME280;65481;47.600;19.682;2023-04-03T10:05:55;100324.50;;;15.04;38.86
76592;BME280;65481;47.600;19.682;2023-04-03T10:16:15;100327.72;;;15.54;39.00
76592;BME280;65481;47.600;19.682;2023-04-03T10:21:35;100326.91;;;15.05;38.27
76592;BME280;65481;47.600;19.682;2023-04-03T10:37:19;100326.97;;;14.23;38.53
76592;BME280;65481;47.600;19.682;2023-04-03T10:42:44;100325.00;;;14.13;38.16
76592;BME280;65481;47.600;19.682;2023-04-03T10:53:10;100313.34;;;13.47;40.94
76592;BME280;65481;47.600;19.682;2023-04-03T10:58:48;100314.81;;;13.04;41.14
76592;BME280;65481;47.600;19.682;2023-04-03T11:03:55;100318.59;;;13.08;41.56
76592;BME280;65481;47.600;19.682;2023-04-03T11:09:01;100322.03;;;13.09;41.81
76592;BME280;65481;47.600;19.682;2023-04-03T11:35:43;100309.16;;;12.49;42.68
76592;BME280;65481;47.600;19.682;2023-04-03T11:40:47;100304.91;;;12.48;43.42
76592;BME280;65481;47.600;19.682;2023-04-03T11:45:54;100306.88;;;12.24;43.41
76592;BME280;65481;47.600;19.682;2023-04-03T11:50:56;100302.22;;;12.02;42.76
76592;BME280;65481;47.600;19.682;2023-04-03T11:55:59;100295.75;;;11.98;42.02
76592;BME280;65481;47.600;19.682;2023-04-03T12:01:06;100291.91;;;11.89;42.80
76592;BME280;65481;47.600;19.682;2023-04-03T12:27:05;100266.16;;;12.25;42.45
76592;BME280;65481;47.600;19.682;2023-04-03T12:47:42;100256.31;;;12.54;41.27
76592;BME280;65481;47.600;19.682;2023-04-03T12:52:45;100253.66;;;12.71;40.52
76592;BME280;65481;47.600;19.682;2023-04-03T12:57:48;100248.22;;;12.61;38.18
76592;BME280;65481;47.600;19.682;2023-04-03T13:02:49;100245.19;;;12.52;36.74
76592;BME280;65481;47.600;19.682;2023-04-03T13:07:58;100241.50;;;12.53;36.31
76592;BME280;65481;47.600;19.682;2023-04-03T13:13:08;100231.34;;;12.84;36.97
76592;BME280;65481;47.600;19.682;2023-04-03T13:18:32;100234.97;;;12.95;36.39
76592;BME280;65481;47.600;19.682;2023-04-03T13:23:36;100229.88;;;13.11;37.15
76592;BME280;65481;47.600;19.682;2023-04-03T13:28:39;100236.56;;;13.36;37.03
76592;BME280;65481;47.600;19.682;2023-04-03T13:34:10;100226.38;;;13.27;35.79
76592;BME280;65481;47.600;19.682;2023-04-03T13:54:37;100213.22;;;13.15;36.13
76592;BME280;65481;47.600;19.682;2023-04-03T13:59:38;100212.72;;;13.36;36.33
76592;BME280;65481;47.600;19.682;2023-04-03T14:09:45;100206.88;;;13.16;35.46
76592;BME280;65481;47.600;19.682;2023-04-03T14:14:46;100205.81;;;13.12;36.54
76592;BME280;65481;47.600;19.682;2023-04-03T14:19:49;100208.78;;;12.99;37.07
76592;BME280;65481;47.600;19.682;2023-04-03T14:24:50;100200.88;;;12.82;36.40
76592;BME280;65481;47.600;19.682;2023-04-03T14:29:53;100203.97;;;12.56;36.25
76592;BME280;65481;47.600;19.682;2023-04-03T14:34:55;100208.25;;;12.29;36.67
76592;BME280;65481;47.600;19.682;2023-04-03T14:39:57;100222.69;;;12.04;36.52
76592;BME280;65481;47.600;19.682;2023-04-03T14:44:59;100210.09;;;11.82;36.98
76592;BME280;65481;47.600;19.682;2023-04-03T14:50:04;100216.28;;;11.47;37.40
76592;BME280;65481;47.600;19.682;2023-04-03T14:55:05;100223.69;;;11.21;38.76
76592;BME280;65481;47.600;19.682;2023-04-03T15:00:10;100224.84;;;11.01;39.15
76592;BME280;65481;47.600;19.682;2023-04-03T15:05:13;100220.72;;;10.82;40.04
76592;BME280;65481;47.600;19.682;2023-04-03T15:10:29;100224.50;;;10.74;40.95
76592;BME280;65481;47.600;19.682;2023-04-03T15:15:37;100227.50;;;10.66;41.15
76592;BME280;65481;47.600;19.682;2023-04-03T15:20:38;100231.34;;;10.51;41.27
76592;BME280;65481;47.600;19.682;2023-04-03T15:25:39;100228.53;;;10.34;41.58
76592;BME280;65481;47.600;19.682;2023-04-03T15:30:40;100241.13;;;10.20;42.07
76592;BME280;65481;47.600;19.682;2023-04-03T15:35:41;100238.63;;;9.95;41.23
76592;BME280;65481;47.600;19.682;2023-04-03T15:40:41;100239.53;;;9.70;41.17
76592;BME280;65481;47.600;19.682;2023-04-03T15:45:44;100251.56;;;9.66;41.53
76592;BME280;65481;47.600;19.682;2023-04-03T15:50:45;100248.69;;;9.49;42.10
76592;BME280;65481;47.600;19.682;2023-04-03T15:55:45;100247.50;;;9.26;42.58
76592;BME280;65481;47.600;19.682;2023-04-03T16:00:46;100252.69;;;9.14;42.79
76592;BME280;65481;47.600;19.682;2023-04-03T16:05:47;100256.22;;;9.08;43.84
76592;BME280;65481;47.600;19.682;2023-04-03T16:10:48;100252.50;;;8.90;43.74
76592;BME280;65481;47.600;19.682;2023-04-03T16:15:49;100249.78;;;8.78;43.77
76592;BME280;65481;47.600;19.682;2023-04-03T16:20:50;100259.97;;;8.68;43.84
76592;BME280;65481;47.600;19.682;2023-04-03T16:25:50;100261.69;;;8.56;44.53
76592;BME280;65481;47.600;19.682;2023-04-03T16:30:51;100269.22;;;8.45;44.15
76592;BME280;65481;47.600;19.682;2023-04-03T16:35:59;100268.72;;;8.30;44.01
76592;BME280;65481;47.600;19.682;2023-04-03T16:41:01;100285.13;;;8.18;44.33
76592;BME280;65481;47.600;19.682;2023-04-03T16:46:04;100282.91;;;8.15;45.47
76592;BME280;65481;47.600;19.682;2023-04-03T16:51:05;100301.38;;;8.02;45.29
76592;BME280;65481;47.600;19.682;2023-04-03T16:56:05;100309.50;;;7.94;45.15
76592;BME280;65481;47.600;19.682;2023-04-03T17:01:11;100323.84;;;7.91;46.48
76592;BME280;65481;47.600;19.682;2023-04-03T17:06:16;100325.88;;;7.89;48.12
76592;BME280;65481;47.600;19.682;2023-04-03T17:11:17;100340.06;;;7.75;48.74
76592;BME280;65481;47.600;19.682;2023-04-03T17:16:18;100347.38;;;7.66;48.52
76592;BME280;65481;47.600;19.682;2023-04-03T17:21:19;100358.28;;;7.63;48.41
76592;BME280;65481;47.600;19.682;2023-04-03T17:26:20;100377.66;;;7.62;48.64
76592;BME280;65481;47.600;19.682;2023-04-03T17:31:21;100383.75;;;7.42;48.62
76592;BME280;65481;47.600;19.682;2023-04-03T17:36:24;100408.59;;;7.26;48.01
76592;BME280;65481;47.600;19.682;2023-04-03T17:41:24;100401.72;;;7.18;47.08
76592;BME280;65481;47.600;19.682;2023-04-03T17:46:26;100405.31;;;6.97;45.00
76592;BME280;65481;47.600;19.682;2023-04-03T17:51:28;100420.25;;;6.90;45.27
76592;BME280;65481;47.600;19.682;2023-04-03T17:56:38;100444.22;;;6.73;47.51
76592;BME280;65481;47.600;19.682;2023-04-03T18:01:39;100471.88;;;6.34;50.85
76592;BME280;65481;47.600;19.682;2023-04-03T18:06:46;100492.03;;;6.05;51.74
76592;BME280;65481;47.600;19.682;2023-04-03T18:11:48;100483.41;;;6.11;51.97
76592;BME280;65481;47.600;19.682;2023-04-03T18:16:51;100487.38;;;6.00;52.10
76592;BME280;65481;47.600;19.682;2023-04-03T18:21:56;100504.38;;;5.89;52.40
76592;BME280;65481;47.600;19.682;2023-04-03T18:27:11;100526.34;;;5.88;52.77
76592;BME280;65481;47.600;19.682;2023-04-03T18:32:15;100534.28;;;5.73;52.59
76592;BME280;65481;47.600;19.682;2023-04-03T18:37:17;100547.50;;;5.65;51.91
76592;BME280;65481;47.600;19.682;2023-04-03T18:42:23;100538.06;;;5.49;51.02
76592;BME280;65481;47.600;19.682;2023-04-03T18:47:27;100542.25;;;5.43;51.25
76592;BME280;65481;47.600;19.682;2023-04-03T18:52:28;100550.31;;;5.27;50.61
76592;BME280;65481;47.600;19.682;2023-04-03T18:57:29;100551.69;;;5.23;49.91
76592;BME280;65481;47.600;19.682;2023-04-03T19:02:30;100546.94;;;5.11;49.64
76592;BME280;65481;47.600;19.682;2023-04-03T19:07:31;100541.63;;;5.05;49.24
76592;BME280;65481;47.600;19.682;2023-04-03T19:12:32;100541.56;;;4.98;49.31
76592;BME280;65481;47.600;19.682;2023-04-03T19:17:34;100547.31;;;4.93;48.24
76592;BME280;65481;47.600;19.682;2023-04-03T19:22:35;100537.41;;;4.89;47.55
76592;BME280;65481;47.600;19.682;2023-04-03T19:27:38;100537.31;;;4.82;47.05
76592;BME280;65481;47.600;19.682;2023-04-03T19:32:39;100552.50;;;4.72;47.01
76592;BME280;65481;47.600;19.682;2023-04-03T19:37:41;100531.28;;;4.66;47.62
76592;BME280;65481;47.600;19.682;2023-04-03T19:42:46;100526.25;;;4.65;47.91
76592;BME280;65481;47.600;19.682;2023-04-03T19:47:47;100528.25;;;4.63;48.10
76592;BME280;65481;47.600;19.682;2023-04-03T19:52:49;100515.19;;;4.63;47.43
76592;BME280;65481;47.600;19.682;2023-04-03T19:57:50;100501.38;;;4.54;46.21
76592;BME280;65481;47.600;19.682;2023-04-03T20:02:51;100510.28;;;4.45;45.24
76592;BME280;65481;47.600;19.682;2023-04-03T20:07:53;100483.72;;;4.41;45.16
76592;BME280;65481;47.600;19.682;2023-04-03T20:12:55;100487.78;;;4.29;44.41
76592;BME280;65481;47.600;19.682;2023-04-03T20:17:57;100486.59;;;4.16;43.80
76592;BME280;65481;47.600;19.682;2023-04-03T20:22:59;100483.44;;;4.06;43.76
76592;BME280;65481;47.600;19.682;2023-04-03T20:28:00;100485.84;;;3.92;43.76
76592;BME280;65481;47.600;19.682;2023-04-03T20:33:01;100485.72;;;3.86;43.54
76592;BME280;65481;47.600;19.682;2023-04-03T20:38:03;100485.97;;;3.76;43.39
76592;BME280;65481;47.600;19.682;2023-04-03T20:43:06;100489.13;;;3.71;43.15
76592;BME280;65481;47.600;19.682;2023-04-03T20:48:07;100495.22;;;3.63;43.64
76592;BME280;65481;47.600;19.682;2023-04-03T20:53:08;100499.44;;;3.64;43.68
76592;BME280;65481;47.600;19.682;2023-04-03T20:58:08;100489.19;;;3.63;43.39
76592;BME280;65481;47.600;19.682;2023-04-03T21:03:09;100483.44;;;3.68;44.19
76592;BME280;65481;47.600;19.682;2023-04-03T21:19:34;100491.41;;;3.51;43.74
76592;BME280;65481;47.600;19.682;2023-04-03T21:24:39;100480.97;;;3.51;43.89
76592;BME280;65481;47.600;19.682;2023-04-03T21:29:40;100493.19;;;3.51;43.73
76592;BME280;65481;47.600;19.682;2023-04-03T21:34:41;100480.78;;;3.53;43.94
76592;BME280;65481;47.600;19.682;2023-04-03T21:39:41;100483.38;;;3.53;44.28
76592;BME280;65481;47.600;19.682;2023-04-03T21:44:44;100476.50;;;3.60;44.60
76592;BME280;65481;47.600;19.682;2023-04-03T21:49:44;100463.34;;;3.53;45.20
76592;BME280;65481;47.600;19.682;2023-04-03T21:54:46;100458.19;;;3.45;45.76
76592;BME280;65481;47.600;19.682;2023-04-03T21:59:47;100460.00;;;3.44;46.36
76592;BME280;65481;47.600;19.682;2023-04-03T22:04:47;100445.38;;;3.35;47.17
76592;BME280;65481;47.600;19.682;2023-04-03T22:09:48;100443.72;;;3.19;47.72
76592;BME280;65481;47.600;19.682;2023-04-03T22:14:49;100436.59;;;3.05;48.67
76592;BME280;65481;47.600;19.682;2023-04-03T22:19:50;100441.53;;;2.99;48.63
76592;BME280;65481;47.600;19.682;2023-04-03T22:24:50;100443.22;;;2.92;50.04
76592;BME280;65481;47.600;19.682;2023-04-03T22:29:51;100443.88;;;2.86;50.84
76592;BME280;65481;47.600;19.682;2023-04-03T22:34:52;100445.34;;;2.57;53.06
76592;BME280;65481;47.600;19.682;2023-04-03T22:39:53;100448.84;;;2.33;55.23
76592;BME280;65481;47.600;19.682;2023-04-03T22:44:53;100445.97;;;2.11;57.27
76592;BME280;65481;47.600;19.682;2023-04-03T22:49:54;100438.84;;;1.96;58.63
76592;BME280;65481;47.600;19.682;2023-04-03T22:54:54;100438.69;;;1.98;58.51
76592;BME280;65481;47.600;19.682;2023-04-03T22:59:55;100448.56;;;2.11;58.57
76592;BME280;65481;47.600;19.682;2023-04-03T23:04:55;100450.69;;;2.16;58.53
76592;BME280;65481;47.600;19.682;2023-04-03T23:09:56;100448.72;;;2.18;58.83
76592;BME280;65481;47.600;19.682;2023-04-03T23:14:57;100450.72;;;2.07;58.87
76592;BME280;65481;47.600;19.682;2023-04-03T23:19:57;100439.78;;;2.04;60.02
76592;BME280;65481;47.600;19.682;2023-04-03T23:24:58;100445.97;;;2.03;60.34
76592;BME280;65481;47.600;19.682;2023-04-03T23:29:58;100435.88;;;2.08;60.01
76592;BME280;65481;47.600;19.682;2023-04-03T23:34:59;100422.50;;;2.19;57.88
76592;BME280;65481;47.600;19.682;2023-04-03T23:39:59;100427.88;;;2.26;57.57
76592;BME280;65481;47.600;19.682;2023-04-03T23:45:01;100424.31;;;2.27;56.60
76592;BME280;65481;47.600;19.682;2023-04-03T23:50:02;100439.56;;;2.30;55.65
76592;BME280;65481;47.600;19.682;2023-04-03T23:55:02;100445.28;;;2.34;54.90
